Home > Products > Valid Products > TAF

000
FTUS46 KOTX 130407 AAA
TAFPUW
TAF AMD
KPUW 130407Z 1304/1324 26011KT P6SM -RA BKN006 OVC045
     FM130800 24014G22KT P6SM BKN050 OVC100
     FM131600 23017G25KT P6SM BKN250=



000
FTUS46 KOTX 130328 AAB
TAFEAT
TAF AMD
KEAT 130328Z 1303/1324 03004KT 6SM BR BKN009 BKN015
     FM130800 32006KT 4SM BR SCT015 BKN250
     FM131500 29004KT 2SM BR SCT080 SCT250
     FM132200 27005KT P6SM -RA SCT025 OVC100=



000
FTUS46 KOTX 130158 AAA
TAFGEG
TAF AMD
KGEG 130158Z 1302/1324 18005KT P6SM -RA SCT020 BKN030 OVC060
     FM130300 20007KT P6SM VCSH BKN040 OVC060
     FM131000 21012KT P6SM BKN060 BKN100
     FM131200 21016G24KT P6SM SCT100 BKN250=



000
FTUS46 KOTX 130158 AAA
TAFCOE
TAF AMD
KCOE 130158Z 1302/1324 03005KT P6SM -RA SCT035 BKN060 OVC080
     FM130300 20008KT 5SM -RA BR BKN035 OVC060
     FM131000 23013G20KT P6SM VCSH OVC100
     FM131500 23018G26KT P6SM BKN100 BKN250
      AMD LTD TO CLD AND VIS=



000
FTUS46 KOTX 130158 AAA
TAFSFF
TAF AMD
KSFF 130158Z 1302/1324 VRB03KT P6SM -RA BKN035 BKN050
     FM130400 24004KT P6SM VCSH BKN045 OVC070
     FM131000 23008KT P6SM BKN070 BKN100
     FM131200 24010G18KT P6SM SCT100 BKN250=



000
FTUS46 KOTX 130002 AAA
TAFEAT
TAF AMD
KEAT 130002Z 1300/1324 34004KT 5SM -RA BR BKN070 OVC090
     FM130400 32006KT 4SM BR SCT015 BKN250
     FM131500 29004KT 2SM BR SCT080 SCT250
     FM132200 27005KT P6SM -RA SCT025 OVC100=



000
FTUS46 KOTX 130002 AAA
TAFEAT
TAF AMD
KEAT 130002Z 1300/1324 34004KT 5SM -RA BR BKN070 OVC090
     FM130400 32006KT 4SM BR SCT015 BKN250
     FM131500 29004KT 2SM BR SCT080 SCT250
     FM132200 27005KT P6SM -RA SCT025 OVC100=



000
FTUS46 KOTX 130002 AAA
TAFEAT
TAF AMD
KEAT 130002Z 1300/1324 34004KT 5SM -RA BR BKN070 OVC090
     FM130400 32006KT 4SM BR SCT015 BKN250
     FM131500 29004KT 2SM BR SCT080 SCT250
     FM132200 27005KT P6SM -RA SCT025 OVC100=



000
FTUS46 KOTX 122332
TAFCOE
TAF
KCOE 122332Z 1300/1324 03005KT P6SM BKN060 OVC080
     FM130400 20008KT 5SM -RA BR BKN035 OVC060
     FM131000 23013G20KT P6SM VCSH OVC100
     FM131500 23018G26KT P6SM BKN100 BKN250
      AMD LTD TO CLD AND VIS=



000
FTUS46 KOTX 122332
TAFMWH
TAF
KMWH 122332Z 1300/1324 20005KT 6SM -RA BR OVC009
     FM130300 24005KT P6SM VCSH OVC019
     FM130700 22007KT P6SM SCT007 BKN070
     FM131000 23005KT P6SM BKN070
     FM131500 24006KT P6SM SCT250=



000
FTUS46 KOTX 122332
TAFPUW
TAF
KPUW 122332Z 1300/1324 13010KT P6SM FEW060 BKN080
     FM130400 23009KT P6SM -RA BKN035 OVC050
     FM130800 24014G22KT P6SM BKN050 OVC100
     FM131600 23017G25KT P6SM BKN250=



000
FTUS46 KOTX 122332
TAFEAT
TAF
KEAT 122332Z 1300/1324 34004KT P6SM -RA SCT020 BKN070 OVC090
     FM130400 32006KT 4SM BR SCT015 BKN250
     FM131500 29004KT 2SM BR SCT080 SCT250
     FM132200 27005KT P6SM -RA SCT025 OVC100=



000
FTUS46 KOTX 122332
TAFSFF
TAF
KSFF 122332Z 1300/1324 VRB03KT P6SM BKN035 BKN050
     FM130400 24004KT P6SM VCSH BKN045 OVC070
     FM131000 23008KT P6SM BKN070 BKN100
     FM131200 24010G18KT P6SM SCT100 BKN250=



000
FTUS46 KOTX 122332
TAFLWS
TAF
KLWS 122332Z 1300/1324 16005KT P6SM OVC080
     FM130400 24003KT 6SM -RA BR BKN050 OVC070
     FM130900 23010G19KT P6SM VCSH BKN070 OVC100
     FM131600 23012G20KT P6SM SCT100 BKN250=



000
FTUS46 KOTX 122332
TAFMWH
TAF
KMWH 122332Z 1300/1324 20005KT 6SM -RA BR OVC009
     FM130300 24005KT P6SM VCSH OVC019
     FM130700 22007KT P6SM SCT007 BKN070
     FM131000 23005KT P6SM BKN070
     FM131500 24006KT P6SM SCT250=



000
FTUS46 KOTX 122332
TAFGEG
TAF
KGEG 122332Z 1300/1324 18005KT P6SM SCT020 OVC060
     FM130300 20007KT P6SM VCSH BKN040 OVC060
     FM131000 21012KT P6SM BKN060 BKN100
     FM131200 21016G24KT P6SM SCT100 BKN250=



000
FTUS46 KOTX 122332
TAFCOE
TAF
KCOE 122332Z 1300/1324 03005KT P6SM BKN060 OVC080
     FM130400 20008KT 5SM -RA BR BKN035 OVC060
     FM131000 23013G20KT P6SM VCSH OVC100
     FM131500 23018G26KT P6SM BKN100 BKN250
      AMD LTD TO CLD AND VIS=



000
FTUS46 KOTX 122332
TAFPUW
TAF
KPUW 122332Z 1300/1324 13010KT P6SM FEW060 BKN080
     FM130400 23009KT P6SM -RA BKN035 OVC050
     FM130800 24014G22KT P6SM BKN050 OVC100
     FM131600 23017G25KT P6SM BKN250=



000
FTUS46 KOTX 122332
TAFLWS
TAF
KLWS 122332Z 1300/1324 16005KT P6SM OVC080
     FM130400 24003KT 6SM -RA BR BKN050 OVC070
     FM130900 23010G19KT P6SM VCSH BKN070 OVC100
     FM131600 23012G20KT P6SM SCT100 BKN250=



000
FTUS46 KOTX 122332
TAFEAT
TAF
KEAT 122332Z 1300/1324 34004KT P6SM -RA SCT020 BKN070 OVC090
     FM130400 32006KT 4SM BR SCT015 BKN250
     FM131500 29004KT 2SM BR SCT080 SCT250
     FM132200 27005KT P6SM -RA SCT025 OVC100=



000
FTUS46 KOTX 122332
TAFSFF
TAF
KSFF 122332Z 1300/1324 VRB03KT P6SM BKN035 BKN050
     FM130400 24004KT P6SM VCSH BKN045 OVC070
     FM131000 23008KT P6SM BKN070 BKN100
     FM131200 24010G18KT P6SM SCT100 BKN250=



000
FTUS46 KOTX 122332
TAFGEG
TAF
KGEG 122332Z 1300/1324 18005KT P6SM SCT020 OVC060
     FM130300 20007KT P6SM VCSH BKN040 OVC060
     FM131000 21012KT P6SM BKN060 BKN100
     FM131200 21016G24KT P6SM SCT100 BKN250=



000
FTUS46 KOTX 122211 AAB
TAFMWH
TAF AMD
KMWH 122211Z 1222/1318 20005KT 6SM BR BKN010 OVC030
     FM130200 23005KT P6SM VCSH BKN030 BKN060 BKN120
     FM130700 22007KT P6SM BKN007
     FM131500 22008KT P6SM SCT008 BKN015=



000
FTUS46 KOTX 122211 AAB
TAFMWH
TAF AMD
KMWH 122211Z 1222/1318 20005KT 6SM BR BKN010 OVC030
     FM130200 23005KT P6SM VCSH BKN030 BKN060 BKN120
     FM130700 22007KT P6SM BKN007
     FM131500 22008KT P6SM SCT008 BKN015=



000
FTUS46 KOTX 122211 AAB
TAFMWH
TAF AMD
KMWH 122211Z 1222/1318 20005KT 6SM BR BKN010 OVC030
     FM130200 23005KT P6SM VCSH BKN030 BKN060 BKN120
     FM130700 22007KT P6SM BKN007
     FM131500 22008KT P6SM SCT008 BKN015=



000
FTUS46 KOTX 121949 AAB
TAFGEG
TAF AMD
KGEG 121949Z 1220/1318 19005KT P6SM SCT007 BKN050
     FM130300 20009KT 5SM -RA BR OVC040
     FM130600 22012KT P6SM VCSH BKN025 OVC040
     FM131000 22016G24KT P6SM OVC020=



000
FTUS46 KOTX 121946 AAA
TAFEAT
TAF AMD
KEAT 121946Z 1220/1318 17003KT 3SM BR OVC015
      TEMPO 1220/1221 1SM BR OVC009
     FM122100 13003KT 6SM -RA OVC025
     FM130100 31008KT P6SM OVC050
     FM131200 30004KT P6SM SCT080=



000
FTUS46 KOTX 121946 AAA
TAFEAT
TAF AMD
KEAT 121946Z 1220/1318 17003KT 3SM BR OVC015
      TEMPO 1220/1221 1SM BR OVC009
     FM122100 13003KT 6SM -RA OVC025
     FM130100 31008KT P6SM OVC050
     FM131200 30004KT P6SM SCT080=



000
FTUS46 KOTX 121946 AAA
TAFEAT
TAF AMD
KEAT 121946Z 1220/1318 17003KT 3SM BR OVC015
      TEMPO 1220/1221 1SM BR OVC009
     FM122100 13003KT 6SM -RA OVC025
     FM130100 31008KT P6SM OVC050
     FM131200 30004KT P6SM SCT080=



000
FTUS46 KOTX 121916 AAA
TAFMWH
TAF AMD
KMWH 121916Z 1219/1318 16005KT 4SM BR BKN004 OVC020
     FM122100 18005KT P6SM FEW007 SCT020 BKN150
     FM130100 23005KT P6SM VCSH BKN040 BKN060 BKN120
     FM130600 22007KT P6SM BKN025=



000
FTUS46 KOTX 121914 AAA
TAFGEG
TAF AMD
KGEG 121914Z 1219/1318 07005KT 5SM BR VCSH BKN006 BKN050
     FM122100 19005KT P6SM SCT007 BKN050
     FM130300 20009KT 5SM -RA BR OVC040
     FM130600 22012KT P6SM VCSH BKN025 OVC040
     FM131000 22016G24KT P6SM OVC020=



000
FTUS46 KOTX 121914 AAA
TAFGEG
TAF AMD
KGEG 121914Z 1219/1318 07005KT 5SM BR VCSH BKN006 BKN050
     FM122100 19005KT P6SM SCT007 BKN050
     FM130300 20009KT 5SM -RA BR OVC040
     FM130600 22012KT P6SM VCSH BKN025 OVC040
     FM131000 22016G24KT P6SM OVC020=



000
FTUS46 KOTX 121914 AAA
TAFGEG
TAF AMD
KGEG 121914Z 1219/1318 07005KT 5SM BR VCSH BKN006 BKN050
     FM122100 19005KT P6SM SCT007 BKN050
     FM130300 20009KT 5SM -RA BR OVC040
     FM130600 22012KT P6SM VCSH BKN025 OVC040
     FM131000 22016G24KT P6SM OVC020=



000
FTUS46 KOTX 121757 CCA
TAFEAT
TAF COR
KEAT 121757Z 1218/1318 17003KT 1/2SM FG OVC020
     FM122100 13003KT 6SM -RA OVC025
     FM130100 31008KT P6SM OVC050
     FM131200 30004KT P6SM SCT080=



000
FTUS46 KOTX 121757 CCA
TAFEAT
TAF COR
KEAT 121757Z 1218/1318 17003KT 1/2SM FG OVC020
     FM122100 13003KT 6SM -RA OVC025
     FM130100 31008KT P6SM OVC050
     FM131200 30004KT P6SM SCT080=



000
FTUS46 KOTX 121757 CCA
TAFEAT
TAF COR
KEAT 121757Z 1218/1318 17003KT 1/2SM FG OVC020
     FM122100 13003KT 6SM -RA OVC025
     FM130100 31008KT P6SM OVC050
     FM131200 30004KT P6SM SCT080=



000
FTUS46 KOTX 121725
TAFMWH
TAF
KMWH 121725Z 1218/1318 16005KT 4SM BR OVC020
     FM122000 18005KT P6SM SCT020 BKN150
     FM130100 23005KT P6SM VCSH BKN040 BKN060 BKN120
     FM130600 22007KT P6SM BKN025=



000
FTUS46 KOTX 121725
TAFEAT
TAF
KEAT 121725Z 1218/1318 17003KT 3SM BR OVC025
     FM122100 13003KT 6SM -RA OVC025
     FM130100 31008KT P6SM OVC050
     FM131200 30004KT P6SM SCT080=



000
FTUS46 KOTX 121725
TAFCOE
TAF
KCOE 121725Z 1218/1318 07005KT P6SM VCSH BKN050 OVC090
     FM122000 17007KT P6SM SCT080 BKN120
     FM130300 20007KT 5SM -RA BR SCT020 OVC040
     FM130800 22012KT 5SM BR VCSH OVC015
     FM131200 23012G20KT P6SM OVC015
      AMD LTD TO CLD AND VIS=



000
FTUS46 KOTX 121725
TAFMWH
TAF
KMWH 121725Z 1218/1318 16005KT 4SM BR OVC020
     FM122000 18005KT P6SM SCT020 BKN150
     FM130100 23005KT P6SM VCSH BKN040 BKN060 BKN120
     FM130600 22007KT P6SM BKN025=



000
FTUS46 KOTX 121725
TAFSFF
TAF
KSFF 121725Z 1218/1318 VRB03KT P6SM FEW050 OVC100
     FM121900 17007KT P6SM VCSH SCT020 BKN080
     FM130300 20004KT 5SM -RA BR OVC040
     FM130600 23008KT P6SM VCSH BKN015 OVC030
     FM131100 23008G16KT P6SM OVC015=



000
FTUS46 KOTX 121725
TAFEAT
TAF
KEAT 121725Z 1218/1318 17003KT 3SM BR OVC025
     FM122100 13003KT 6SM -RA OVC025
     FM130100 31008KT P6SM OVC050
     FM131200 30004KT P6SM SCT080=



000
FTUS46 KOTX 121725
TAFLWS
TAF
KLWS 121725Z 1218/1318 12005KT P6SM SCT070 BKN090
     FM130400 20007KT 6SM -SHRA BR BKN035 OVC060
     FM130800 23012G18KT P6SM SCT035 BKN060=



000
FTUS46 KOTX 121725
TAFCOE
TAF
KCOE 121725Z 1218/1318 07005KT P6SM VCSH BKN050 OVC090
     FM122000 17007KT P6SM SCT080 BKN120
     FM130300 20007KT 5SM -RA BR SCT020 OVC040
     FM130800 22012KT 5SM BR VCSH OVC015
     FM131200 23012G20KT P6SM OVC015
      AMD LTD TO CLD AND VIS=



000
FTUS46 KOTX 121725
TAFGEG
TAF
KGEG 121725Z 1218/1318 07005KT P6SM VCSH SCT050 BKN080
     FM130300 20009KT 5SM -RA BR OVC040
     FM130600 22012KT P6SM VCSH BKN025 OVC040
     FM131000 22016G24KT P6SM OVC020=



000
FTUS46 KOTX 121725
TAFPUW
TAF
KPUW 121725Z 1218/1318 12008KT P6SM SCT090 OVC120
     FM122100 16010KT P6SM BKN050 OVC080
     FM130400 20009KT 6SM -SHRA BR BKN030 OVC060
     FM130800 24014G20KT P6SM OVC030=



000
FTUS46 KOTX 121725
TAFPUW
TAF
KPUW 121725Z 1218/1318 12008KT P6SM SCT090 OVC120
     FM122100 16010KT P6SM BKN050 OVC080
     FM130400 20009KT 6SM -SHRA BR BKN030 OVC060
     FM130800 24014G20KT P6SM OVC030=



000
FTUS46 KOTX 121725
TAFGEG
TAF
KGEG 121725Z 1218/1318 07005KT P6SM VCSH SCT050 BKN080
     FM130300 20009KT 5SM -RA BR OVC040
     FM130600 22012KT P6SM VCSH BKN025 OVC040
     FM131000 22016G24KT P6SM OVC020=



000
FTUS46 KOTX 121725
TAFSFF
TAF
KSFF 121725Z 1218/1318 VRB03KT P6SM FEW050 OVC100
     FM121900 17007KT P6SM VCSH SCT020 BKN080
     FM130300 20004KT 5SM -RA BR OVC040
     FM130600 23008KT P6SM VCSH BKN015 OVC030
     FM131100 23008G16KT P6SM OVC015=



000
FTUS46 KOTX 121725
TAFLWS
TAF
KLWS 121725Z 1218/1318 12005KT P6SM SCT070 BKN090
     FM130400 20007KT 6SM -SHRA BR BKN035 OVC060
     FM130800 23012G18KT P6SM SCT035 BKN060=



000
FTUS46 KOTX 121725
TAFLWS
TAF
KLWS 121725Z 1218/1318 12005KT P6SM SCT070 BKN090
     FM130400 20007KT 6SM -SHRA BR BKN035 OVC060
     FM130800 23012G18KT P6SM SCT035 BKN060=



000
FTUS46 KOTX 121725
TAFSFF
TAF
KSFF 121725Z 1218/1318 VRB03KT P6SM FEW050 OVC100
     FM121900 17007KT P6SM VCSH SCT020 BKN080
     FM130300 20004KT 5SM -RA BR OVC040
     FM130600 23008KT P6SM VCSH BKN015 OVC030
     FM131100 23008G16KT P6SM OVC015=



000
FTUS46 KOTX 121725
TAFCOE
TAF
KCOE 121725Z 1218/1318 07005KT P6SM VCSH BKN050 OVC090
     FM122000 17007KT P6SM SCT080 BKN120
     FM130300 20007KT 5SM -RA BR SCT020 OVC040
     FM130800 22012KT 5SM BR VCSH OVC015
     FM131200 23012G20KT P6SM OVC015
      AMD LTD TO CLD AND VIS=



000
FTUS46 KOTX 121725
TAFMWH
TAF
KMWH 121725Z 1218/1318 16005KT 4SM BR OVC020
     FM122000 18005KT P6SM SCT020 BKN150
     FM130100 23005KT P6SM VCSH BKN040 BKN060 BKN120
     FM130600 22007KT P6SM BKN025=



000
FTUS46 KOTX 121725
TAFEAT
TAF
KEAT 121725Z 1218/1318 17003KT 3SM BR OVC025
     FM122100 13003KT 6SM -RA OVC025
     FM130100 31008KT P6SM OVC050
     FM131200 30004KT P6SM SCT080=



000
FTUS46 KOTX 121725
TAFGEG
TAF
KGEG 121725Z 1218/1318 07005KT P6SM VCSH SCT050 BKN080
     FM130300 20009KT 5SM -RA BR OVC040
     FM130600 22012KT P6SM VCSH BKN025 OVC040
     FM131000 22016G24KT P6SM OVC020=



000
FTUS46 KOTX 121725
TAFPUW
TAF
KPUW 121725Z 1218/1318 12008KT P6SM SCT090 OVC120
     FM122100 16010KT P6SM BKN050 OVC080
     FM130400 20009KT 6SM -SHRA BR BKN030 OVC060
     FM130800 24014G20KT P6SM OVC030=



000
FTUS46 KOTX 121625 AAA
TAFCOE
TAF AMD
KCOE 121625Z 1216/1312 07007KT P6SM VCSH BKN009
      TEMPO 1216/1218 2SM BR OVC025
     FM121900 17007KT P6SM VCSH SCT020 BKN080
     FM130300 20007KT 5SM -RA BR OVC040
      AMD LTD TO CLD AND VIS=



000
FTUS46 KOTX 121618 AAA
TAFGEG
TAF AMD
KGEG 121618Z 1216/1312 07007KT P6SM SCT040 BKN100 OVC200
      TEMPO 1216/1219 3SM BR OVC025
     FM121900 17007KT P6SM VCSH SCT020 BKN080
     FM130300 20007KT 5SM -RA BR OVC040=



000
FTUS46 KOTX 121618 AAA
TAFGEG
TAF AMD
KGEG 121618Z 1216/1312 07007KT P6SM SCT040 BKN100 OVC200
      TEMPO 1216/1219 3SM BR OVC025
     FM121900 17007KT P6SM VCSH SCT020 BKN080
     FM130300 20007KT 5SM -RA BR OVC040=



000
FTUS46 KOTX 121617 AAA
TAFSFF
TAF AMD
KSFF 121617Z 1216/1312 VRB03KT P6SM FEW010 OVC100
     FM121900 17007KT P6SM VCSH SCT020 BKN080
     FM130300 20007KT 5SM -RA BR OVC040=



000
FTUS46 KOTX 121557 AAB
TAFMWH
TAF AMD
KMWH 121557Z 1216/1312 16005KT 2SM BR BKN006 OVC020
     FM121900 16005KT P6SM SCT020 BKN250
     FM130200 23005KT P6SM VCSH BKN040 BKN060 BKN120=



000
FTUS46 KOTX 121534 AAA
TAFEAT
TAF AMD
KEAT 121534Z 1216/1312 18003KT 3SM -RA BR OVC020
     FM121800 15003KT P6SM BKN018 OVC050
     FM122100 13003KT P6SM -RA OVC025=



000
FTUS46 KOTX 121402 AAA
TAFMWH
TAF AMD
KMWH 121402Z 1214/1312 01005KT P6SM VCSH BKN007 OVC090
     FM121800 16005KT P6SM SCT020 BKN250
     FM130200 23005KT P6SM VCSH BKN040 BKN060 BKN120=



000
FTUS46 KOTX 121137
TAFGEG
TAF
KGEG 121137Z 1212/1312 07007KT P6SM VCSH SCT006 OVC040
     FM121600 17005KT 2SM BR OVC025
     FM121900 17007KT P6SM VCSH SCT020 BKN080
     FM130300 20007KT 5SM -RA BR OVC040=



000
FTUS46 KOTX 121137
TAFGEG
TAF
KGEG 121137Z 1212/1312 07007KT P6SM VCSH SCT006 OVC040
     FM121600 17005KT 2SM BR OVC025
     FM121900 17007KT P6SM VCSH SCT020 BKN080
     FM130300 20007KT 5SM -RA BR OVC040=



000
FTUS46 KOTX 121137
TAFCOE
TAF
KCOE 121137Z 1212/1312 04009KT P6SM VCSH SCT010 OVC035
     FM121600 17005KT 2SM BR OVC025
     FM121900 17007KT P6SM VCSH SCT020 BKN080
     FM130300 20007KT 5SM -RA BR OVC040
      AMD LTD TO CLD AND VIS=



000
FTUS46 KOTX 121137
TAFSFF
TAF
KSFF 121137Z 1212/1312 VRB03KT 6SM BR VCSH SCT010 OVC045
     FM121600 17005KT 2SM BR OVC025
     FM121900 17007KT P6SM VCSH SCT020 BKN080
     FM130300 20007KT 5SM -RA BR OVC040=



000
FTUS46 KOTX 121137
TAFLWS
TAF
KLWS 121137Z 1212/1312 15007KT P6SM SCT030 OVC070
     FM121600 12008KT P6SM SCT020 BKN050
     FM121900 12008KT P6SM VCSH SCT020 BKN080
     FM130400 24007KT 6SM -SHRA BR BKN035 OVC060=



000
FTUS46 KOTX 121137
TAFLWS
TAF
KLWS 121137Z 1212/1312 15007KT P6SM SCT030 OVC070
     FM121600 12008KT P6SM SCT020 BKN050
     FM121900 12008KT P6SM VCSH SCT020 BKN080
     FM130400 24007KT 6SM -SHRA BR BKN035 OVC060=



000
FTUS46 KOTX 121137
TAFEAT
TAF
KEAT 121137Z 1212/1312 32003KT 2SM BR VCSH OVC025
      TEMPO 1212/1216 1/2SM FG
     FM121600 28003KT 6SM -RA BKN025 OVC030
     FM121800 15003KT P6SM BKN018 OVC050
     FM122100 13003KT P6SM -RA OVC025=



000
FTUS46 KOTX 121137
TAFMWH
TAF
KMWH 121137Z 1212/1312 01005KT P6SM -SHRA SCT012 BKN035
     FM121400 03003KT P6SM OVC100
     FM121900 16005KT P6SM SCT250
     FM130200 23005KT P6SM VCSH BKN040 BKN060 BKN120=



000
FTUS46 KOTX 121137
TAFPUW
TAF
KPUW 121137Z 1212/1312 10008KT P6SM BKN040 OVC090
     FM121600 12008KT P6SM SCT020 BKN050
     FM121900 12008KT P6SM VCSH SCT020 BKN080
     FM130400 20007KT 6SM -SHRA BR BKN030 OVC060=



000
FTUS46 KOTX 121137
TAFMWH
TAF
KMWH 121137Z 1212/1312 01005KT P6SM -SHRA SCT012 BKN035
     FM121400 03003KT P6SM OVC100
     FM121900 16005KT P6SM SCT250
     FM130200 23005KT P6SM VCSH BKN040 BKN060 BKN120=



000
FTUS46 KOTX 121137
TAFCOE
TAF
KCOE 121137Z 1212/1312 04009KT P6SM VCSH SCT010 OVC035
     FM121600 17005KT 2SM BR OVC025
     FM121900 17007KT P6SM VCSH SCT020 BKN080
     FM130300 20007KT 5SM -RA BR OVC040
      AMD LTD TO CLD AND VIS=



000
FTUS46 KOTX 121137
TAFPUW
TAF
KPUW 121137Z 1212/1312 10008KT P6SM BKN040 OVC090
     FM121600 12008KT P6SM SCT020 BKN050
     FM121900 12008KT P6SM VCSH SCT020 BKN080
     FM130400 20007KT 6SM -SHRA BR BKN030 OVC060=



000
FTUS46 KOTX 121137
TAFSFF
TAF
KSFF 121137Z 1212/1312 VRB03KT 6SM BR VCSH SCT010 OVC045
     FM121600 17005KT 2SM BR OVC025
     FM121900 17007KT P6SM VCSH SCT020 BKN080
     FM130300 20007KT 5SM -RA BR OVC040=



000
FTUS46 KOTX 121137
TAFEAT
TAF
KEAT 121137Z 1212/1312 32003KT 2SM BR VCSH OVC025
      TEMPO 1212/1216 1/2SM FG
     FM121600 28003KT 6SM -RA BKN025 OVC030
     FM121800 15003KT P6SM BKN018 OVC050
     FM122100 13003KT P6SM -RA OVC025=



000
FTUS46 KOTX 121137
TAFGEG
TAF
KGEG 121137Z 1212/1312 07007KT P6SM VCSH SCT006 OVC040
     FM121600 17005KT 2SM BR OVC025
     FM121900 17007KT P6SM VCSH SCT020 BKN080
     FM130300 20007KT 5SM -RA BR OVC040=



000
FTUS46 KOTX 121137
TAFPUW
TAF
KPUW 121137Z 1212/1312 10008KT P6SM BKN040 OVC090
     FM121600 12008KT P6SM SCT020 BKN050
     FM121900 12008KT P6SM VCSH SCT020 BKN080
     FM130400 20007KT 6SM -SHRA BR BKN030 OVC060=



000
FTUS46 KOTX 121137
TAFLWS
TAF
KLWS 121137Z 1212/1312 15007KT P6SM SCT030 OVC070
     FM121600 12008KT P6SM SCT020 BKN050
     FM121900 12008KT P6SM VCSH SCT020 BKN080
     FM130400 24007KT 6SM -SHRA BR BKN035 OVC060=



000
FTUS46 KOTX 121137
TAFCOE
TAF
KCOE 121137Z 1212/1312 04009KT P6SM VCSH SCT010 OVC035
     FM121600 17005KT 2SM BR OVC025
     FM121900 17007KT P6SM VCSH SCT020 BKN080
     FM130300 20007KT 5SM -RA BR OVC040
      AMD LTD TO CLD AND VIS=



000
FTUS46 KOTX 121137
TAFSFF
TAF
KSFF 121137Z 1212/1312 VRB03KT 6SM BR VCSH SCT010 OVC045
     FM121600 17005KT 2SM BR OVC025
     FM121900 17007KT P6SM VCSH SCT020 BKN080
     FM130300 20007KT 5SM -RA BR OVC040=



000
FTUS46 KOTX 121137
TAFMWH
TAF
KMWH 121137Z 1212/1312 01005KT P6SM -SHRA SCT012 BKN035
     FM121400 03003KT P6SM OVC100
     FM121900 16005KT P6SM SCT250
     FM130200 23005KT P6SM VCSH BKN040 BKN060 BKN120=



000
FTUS46 KOTX 121137
TAFEAT
TAF
KEAT 121137Z 1212/1312 32003KT 2SM BR VCSH OVC025
      TEMPO 1212/1216 1/2SM FG
     FM121600 28003KT 6SM -RA BKN025 OVC030
     FM121800 15003KT P6SM BKN018 OVC050
     FM122100 13003KT P6SM -RA OVC025=



000
FTUS46 KOTX 120805 AAA
TAFEAT
TAF AMD
KEAT 120805Z 1208/1306 32003KT 2SM BR VCSH OVC025
     FM121000 28003KT 6SM -RA BKN025 OVC030
     FM121500 15003KT P6SM BKN018 OVC050
     FM122100 13003KT P6SM -RA OVC025=



000
FTUS46 KOTX 120523
TAFGEG
TAF
KGEG 120523Z 1206/1306 07004KT 5SM -RA BR BKN040 OVC060
     FM121500 12005KT 2SM BR OVC025
     FM121900 15007KT P6SM SCT050 OVC100
     FM130300 20007KT 5SM -RA BR OVC040=



000
FTUS46 KOTX 120523
TAFCOE
TAF
KCOE 120523Z 1206/1306 05009KT 4SM -RA BR SCT030 BKN060 OVC080
     FM121800 08004KT P6SM OVC050
     FM130300 20007KT 5SM -RA BR SCT030 BKN060 OVC080
      AMD LTD TO CLD AND VIS=



000
FTUS46 KOTX 120523
TAFLWS
TAF
KLWS 120523Z 1206/1306 12006KT P6SM -RA SCT030 BKN045 OVC070
     FM120800 12006KT P6SM SCT030 BKN045 OVC070
     FM121200 11005KT P6SM SCT100 BKN250
     FM130400 22007KT P6SM -RA SCT030 BKN045 OVC070=



000
FTUS46 KOTX 120523
TAFSFF
TAF
KSFF 120523Z 1206/1306 06002KT 6SM -RA BR SCT040 BKN070 OVC090
     FM121500 10002KT 4SM BR OVC028
     FM122000 18002KT P6SM SCT050 OVC100
     FM130300 21004KT 5SM -RA BR SCT040 BKN070 OVC090=



000
FTUS46 KOTX 120523
TAFEAT
TAF
KEAT 120523Z 1206/1306 32003KT 4SM BR VCSH SCT015 BKN040 OVC070
     FM121000 28003KT 6SM -RA BKN025 OVC030
     FM121500 15003KT P6SM BKN018 OVC050
     FM122100 13003KT P6SM -RA OVC025=



000
FTUS46 KOTX 120523
TAFMWH
TAF
KMWH 120523Z 1206/1306 35005KT P6SM -RA BKN035 OVC050
     FM120900 01005KT P6SM BKN040 OVC060
     FM121400 03003KT P6SM OVC100
     FM121900 16005KT P6SM SCT250
     FM130200 23005KT P6SM VCSH BKN040 BKN060 BKN120=



000
FTUS46 KOTX 120523
TAFPUW
TAF
KPUW 120523Z 1206/1306 11006KT P6SM -RA SCT020 BKN045 OVC070
     FM120900 10006KT P6SM BKN050 OVC100
     FM122000 15008KT P6SM SCT100 BKN250
     FM130300 21007KT 6SM -RA SCT020 BKN045 OVC080=



000
FTUS46 KOTX 112335
TAFMWH
TAF
KMWH 112335Z 1200/1224 34008KT P6SM VCSH OVC060
     FM120200 35007KT P6SM -RA SCT015 OVC035
     FM120600 01005KT P6SM BKN035 OVC050
     FM121400 03003KT P6SM OVC100
     FM121900 16005KT P6SM SCT250=



000
FTUS46 KOTX 112335
TAFEAT
TAF
KEAT 112335Z 1200/1224 00000KT P6SM -RA SCT035 OVC060
     FM120600 34003KT 5SM BR VCSH SCT015 OVC030
     FM121000 28003KT 6SM -RA BKN025 OVC030
     FM121500 15003KT P6SM BKN018 OVC050
     FM122100 13003KT P6SM -RA OVC025=



000
FTUS46 KOTX 112335
TAFCOE
TAF
KCOE 112335Z 1200/1224 03010KT P6SM VCSH SCT070 OVC090
     FM120600 05009KT 4SM -RA BR SCT030 OVC050
     FM121800 08004KT P6SM OVC050
      AMD LTD TO CLD AND VIS=



000
FTUS46 KOTX 112335
TAFLWS
TAF
KLWS 112335Z 1200/1224 08011KT P6SM VCSH OVC090
     FM120300 11004KT P6SM -RA SCT050 OVC060
     FM120600 12006KT P6SM SCT060 OVC100
     FM121200 11005KT P6SM SCT100 BKN250=



000
FTUS46 KOTX 112335
TAFCOE
TAF
KCOE 112335Z 1200/1224 03010KT P6SM VCSH SCT070 OVC090
     FM120600 05009KT 4SM -RA BR SCT030 OVC050
     FM121800 08004KT P6SM OVC050
      AMD LTD TO CLD AND VIS=



000
FTUS46 KOTX 112335
TAFSFF
TAF
KSFF 112335Z 1200/1224 VRB02KT P6SM VCSH SCT060 OVC070
     FM120400 06002KT 6SM -RA BR SCT035 OVC050
     FM121500 10002KT 4SM BR OVC028
     FM122000 18002KT P6SM SCT050 OVC100=



000
FTUS46 KOTX 112335
TAFPUW
TAF
KPUW 112335Z 1200/1224 11005KT P6SM VCSH SCT050 OVC090
     FM120400 11006KT P6SM -RA SCT020 OVC045
     FM120900 10006KT P6SM BKN050 OVC100
     FM122000 15008KT P6SM SCT100 BKN250=



000
FTUS46 KOTX 112335
TAFEAT
TAF
KEAT 112335Z 1200/1224 00000KT P6SM -RA SCT035 OVC060
     FM120600 34003KT 5SM BR VCSH SCT015 OVC030
     FM121000 28003KT 6SM -RA BKN025 OVC030
     FM121500 15003KT P6SM BKN018 OVC050
     FM122100 13003KT P6SM -RA OVC025=



000
FTUS46 KOTX 112335
TAFLWS
TAF
KLWS 112335Z 1200/1224 08011KT P6SM VCSH OVC090
     FM120300 11004KT P6SM -RA SCT050 OVC060
     FM120600 12006KT P6SM SCT060 OVC100
     FM121200 11005KT P6SM SCT100 BKN250=



000
FTUS46 KOTX 112335
TAFGEG
TAF
KGEG 112335Z 1200/1224 06008KT P6SM VCSH BKN060 OVC080
     FM120400 07004KT 5SM -RA BR OVC040
     FM121500 12005KT 2SM BR OVC025
     FM121900 15007KT P6SM SCT050 OVC100=



000
FTUS46 KOTX 112335
TAFMWH
TAF
KMWH 112335Z 1200/1224 34008KT P6SM VCSH OVC060
     FM120200 35007KT P6SM -RA SCT015 OVC035
     FM120600 01005KT P6SM BKN035 OVC050
     FM121400 03003KT P6SM OVC100
     FM121900 16005KT P6SM SCT250=



000
FTUS46 KOTX 112335
TAFSFF
TAF
KSFF 112335Z 1200/1224 VRB02KT P6SM VCSH SCT060 OVC070
     FM120400 06002KT 6SM -RA BR SCT035 OVC050
     FM121500 10002KT 4SM BR OVC028
     FM122000 18002KT P6SM SCT050 OVC100=



000
FTUS46 KOTX 112335
TAFPUW
TAF
KPUW 112335Z 1200/1224 11005KT P6SM VCSH SCT050 OVC090
     FM120400 11006KT P6SM -RA SCT020 OVC045
     FM120900 10006KT P6SM BKN050 OVC100
     FM122000 15008KT P6SM SCT100 BKN250=



000
FTUS46 KOTX 112335
TAFGEG
TAF
KGEG 112335Z 1200/1224 06008KT P6SM VCSH BKN060 OVC080
     FM120400 07004KT 5SM -RA BR OVC040
     FM121500 12005KT 2SM BR OVC025
     FM121900 15007KT P6SM SCT050 OVC100=



000
FTUS46 KOTX 112335
TAFEAT
TAF
KEAT 112335Z 1200/1224 00000KT P6SM -RA SCT035 OVC060
     FM120600 34003KT 5SM BR VCSH SCT015 OVC030
     FM121000 28003KT 6SM -RA BKN025 OVC030
     FM121500 15003KT P6SM BKN018 OVC050
     FM122100 13003KT P6SM -RA OVC025=



000
FTUS46 KOTX 112335
TAFLWS
TAF
KLWS 112335Z 1200/1224 08011KT P6SM VCSH OVC090
     FM120300 11004KT P6SM -RA SCT050 OVC060
     FM120600 12006KT P6SM SCT060 OVC100
     FM121200 11005KT P6SM SCT100 BKN250=



000
FTUS46 KOTX 112335
TAFSFF
TAF
KSFF 112335Z 1200/1224 VRB02KT P6SM VCSH SCT060 OVC070
     FM120400 06002KT 6SM -RA BR SCT035 OVC050
     FM121500 10002KT 4SM BR OVC028
     FM122000 18002KT P6SM SCT050 OVC100=



000
FTUS46 KOTX 112335
TAFPUW
TAF
KPUW 112335Z 1200/1224 11005KT P6SM VCSH SCT050 OVC090
     FM120400 11006KT P6SM -RA SCT020 OVC045
     FM120900 10006KT P6SM BKN050 OVC100
     FM122000 15008KT P6SM SCT100 BKN250=



000
FTUS46 KOTX 112335
TAFCOE
TAF
KCOE 112335Z 1200/1224 03010KT P6SM VCSH SCT070 OVC090
     FM120600 05009KT 4SM -RA BR SCT030 OVC050
     FM121800 08004KT P6SM OVC050
      AMD LTD TO CLD AND VIS=



000
FTUS46 KOTX 112335
TAFMWH
TAF
KMWH 112335Z 1200/1224 34008KT P6SM VCSH OVC060
     FM120200 35007KT P6SM -RA SCT015 OVC035
     FM120600 01005KT P6SM BKN035 OVC050
     FM121400 03003KT P6SM OVC100
     FM121900 16005KT P6SM SCT250=



000
FTUS46 KOTX 112335
TAFGEG
TAF
KGEG 112335Z 1200/1224 06008KT P6SM VCSH BKN060 OVC080
     FM120400 07004KT 5SM -RA BR OVC040
     FM121500 12005KT 2SM BR OVC025
     FM121900 15007KT P6SM SCT050 OVC100=



000
FTUS46 KOTX 112215 AAA
TAFPUW
TAF AMD
KPUW 112215Z 1122/1218 11005KT P6SM VCSH SCT050 OVC070
     FM120200 11006KT P6SM VCSH SCT020 OVC045
     FM121300 12006KT P6SM OVC100=



000
FTUS46 KOTX 112057 AAB
TAFSFF
TAF AMD
KSFF 112057Z 1121/1218 00000KT P6SM SCT007 OVC100
     FM120300 06002KT 4SM -RA BR SCT025 OVC035
     FM120800 VRB02KT 1/2SM FG OVC003
     FM121200 11002KT 4SM -RA BR OVC010=



000
FTUS46 KOTX 112057 AAB
TAFSFF
TAF AMD
KSFF 112057Z 1121/1218 00000KT P6SM SCT007 OVC100
     FM120300 06002KT 4SM -RA BR SCT025 OVC035
     FM120800 VRB02KT 1/2SM FG OVC003
     FM121200 11002KT 4SM -RA BR OVC010=



000
FTUS46 KOTX 112057 AAB
TAFSFF
TAF AMD
KSFF 112057Z 1121/1218 00000KT P6SM SCT007 OVC100
     FM120300 06002KT 4SM -RA BR SCT025 OVC035
     FM120800 VRB02KT 1/2SM FG OVC003
     FM121200 11002KT 4SM -RA BR OVC010=



000
FTUS46 KOTX 112056 AAC
TAFGEG
TAF AMD
KGEG 112056Z 1121/1218 05010KT P6SM FEW080 OVC100
     FM120300 07004KT 1SM -RA BR OVC005
     FM120800 07004KT 1/4SM FG OVC001
     FM121200 10003KT 2SM -RA BR OVC003=



000
FTUS46 KOTX 111922 AAB
TAFCOE
TAF AMD
KCOE 111922Z 1119/1218 04010KT P6SM SCT120 BKN200
     FM120400 05006KT 4SM -RA BR BKN020 OVC025
     FM121200 07006KT 1SM -RA BR OVC007
      AMD LTD TO CLD AND VIS=



000
FTUS46 KOTX 111922 AAB
TAFCOE
TAF AMD
KCOE 111922Z 1119/1218 04010KT P6SM SCT120 BKN200
     FM120400 05006KT 4SM -RA BR BKN020 OVC025
     FM121200 07006KT 1SM -RA BR OVC007
      AMD LTD TO CLD AND VIS=



000
FTUS46 KOTX 111917 AAB
TAFGEG
TAF AMD
KGEG 111917Z 1119/1218 04010KT 3SM BR SCT003 BKN100 OVC200
     FM120300 07004KT 1SM -RA BR OVC005
     FM120800 07004KT 1/4SM FG OVC001
     FM121200 10003KT 2SM -RA BR OVC003=



000
FTUS46 KOTX 111858 AAA
TAFCOE
TAF AMD
KCOE 111858Z 1119/1218 05005KT 5SM BR SCT002 BKN200
     FM112100 04006KT P6SM SCT010 OVC020
     FM120400 05006KT 4SM -RA BR BKN020 OVC025
     FM121200 07006KT 1SM -RA BR OVC007
      AMD LTD TO CLD AND VIS=



000
FTUS46 KOTX 111858 AAA
TAFGEG
TAF AMD
KGEG 111858Z 1119/1218 04010KT 3SM BR BKN003 BKN100 OVC200
     FM120300 07004KT 1SM -RA BR OVC005
     FM120800 07004KT 1/4SM FG OVC001
     FM121200 10003KT 2SM -RA BR OVC003=



000
FTUS46 KOTX 111857 AAA
TAFSFF
TAF AMD
KSFF 111857Z 1119/1218 00000KT 4SM BR BKN007
     FM112200 05002KT P6SM SCT012 BKN020
     FM120300 06002KT 4SM -RA BR SCT025 OVC035
     FM120800 VRB02KT 1/2SM FG OVC003
     FM121200 11002KT 4SM -RA BR OVC010=



000
FTUS46 KOTX 111735
TAFGEG
TAF
KGEG 111735Z 1118/1218 05006KT 1/4SM FG VV001
     FM112200 06006KT 3SM BR SCT001 OVC004
     FM120300 07004KT 1SM -RA BR OVC005
     FM120800 07004KT 1/4SM FG OVC001
     FM121200 10003KT 2SM -RA BR OVC003=



000
FTUS46 KOTX 111735
TAFPUW
TAF
KPUW 111735Z 1118/1218 09006KT P6SM BKN100 OVC200
     FM120200 11006KT P6SM VCSH SCT020 OVC045
     FM121300 12006KT P6SM OVC100=



000
FTUS46 KOTX 111735
TAFMWH
TAF
KMWH 111735Z 1118/1218 02008KT P6SM OVC090
     FM112100 02005KT P6SM VCSH SCT025 OVC045
     FM120100 35007KT P6SM -RA SCT015 OVC040
     FM120400 VRB03KT 6SM -RA BR BKN020 OVC035
     FM121400 05004KT P6SM OVC100=



000
FTUS46 KOTX 111735
TAFCOE
TAF
KCOE 111735Z 1118/1218 05005KT 5SM BR SCT002 BKN200
      TEMPO 1118/1121 1/2SM FG OVC002
     FM112100 04006KT P6SM BKN010 OVC020
     FM120400 05006KT 4SM -RA BR BKN020 OVC025
     FM121200 07006KT 1SM -RA BR OVC007
      AMD LTD TO CLD AND VIS=



000
FTUS46 KOTX 111735
TAFLWS
TAF
KLWS 111735Z 1118/1218 09008KT P6SM OVC100
     FM120200 11004KT P6SM VCSH SCT050 OVC100
     FM120900 11004KT P6SM BKN100 OVC250=



000
FTUS46 KOTX 111735
TAFEAT
TAF
KEAT 111735Z 1118/1218 00000KT P6SM VCSH SCT060 OVC090
     FM112300 36003KT P6SM -RA SCT020 OVC040
     FM120200 34003KT 5SM -RA BR BKN019 OVC035
     FM121400 10002KT 2SM BR BKN015 OVC030=



000
FTUS46 KOTX 111735
TAFSFF
TAF
KSFF 111735Z 1118/1218 00000KT 1/4SM FG VV002
     FM112200 05002KT 5SM BR SCT006 BKN012
     FM120300 06002KT 4SM -RA BR SCT025 OVC035
     FM120800 VRB02KT 1/2SM FG OVC003
     FM121200 11002KT 4SM -RA BR OVC010=



000
FTUS46 KOTX 111638 AAC
TAFCOE
TAF AMD
KCOE 111638Z 1117/1212 05005KT 5SM PRFG SCT002 BKN200
     FM111800 04006KT P6SM SCT025 OVC060
     FM120200 04005KT P6SM -RA SCT025 OVC050
     FM120700 06006KT P6SM -RA BKN025 OVC050
      AMD LTD TO CLD AND VIS=



000
FTUS46 KOTX 111638 AAC
TAFCOE
TAF AMD
KCOE 111638Z 1117/1212 05005KT 5SM PRFG SCT002 BKN200
     FM111800 04006KT P6SM SCT025 OVC060
     FM120200 04005KT P6SM -RA SCT025 OVC050
     FM120700 06006KT P6SM -RA BKN025 OVC050
      AMD LTD TO CLD AND VIS=



000
FTUS46 KOTX 111638 AAC
TAFCOE
TAF AMD
KCOE 111638Z 1117/1212 05005KT 5SM PRFG SCT002 BKN200
     FM111800 04006KT P6SM SCT025 OVC060
     FM120200 04005KT P6SM -RA SCT025 OVC050
     FM120700 06006KT P6SM -RA BKN025 OVC050
      AMD LTD TO CLD AND VIS=



000
FTUS46 KOTX 111527 AAB
TAFCOE
TAF AMD
KCOE 111527Z 1115/1212 05004KT 1/4SM FZFG VV002
     FM111730 05005KT 4SM PRFG FEW004 BKN200
     FM111900 04006KT P6SM SCT025 OVC060
     FM120200 04005KT P6SM -RA SCT025 OVC050
     FM120700 06006KT P6SM -RA BKN025 OVC050
      AMD LTD TO CLD AND VIS=



000
FTUS46 KOTX 111515 AAA
TAFSFF
TAF AMD
KSFF 111515Z 1115/1212 00000KT 1/4SM FG VV002
      TEMPO 1115/1117 1SM BR SCT002
     FM111800 VRB03KT 6SM BR SCT006 BKN012
     FM112000 06004KT P6SM SCT025 OVC050
     FM120100 VRB02KT P6SM -RA BKN025 OVC050=



000
FTUS46 KOTX 111424 AAA
TAFCOE
TAF AMD
KCOE 111424Z 1114/1212 05004KT 3SM BR SCT003
      TEMPO 1114/1116 1SM BR VV003
     FM111700 05005KT 6SM PRFG FEW004 BKN200
     FM111900 04006KT P6SM SCT025 OVC060
     FM120200 04005KT P6SM -RA SCT025 OVC050
     FM120700 06006KT P6SM -RA BKN025 OVC050
      AMD LTD TO CLD AND VIS=



000
FTUS46 KOTX 111424 AAA
TAFCOE
TAF AMD
KCOE 111424Z 1114/1212 05004KT 3SM BR SCT003
      TEMPO 1114/1116 1SM BR VV003
     FM111700 05005KT 6SM PRFG FEW004 BKN200
     FM111900 04006KT P6SM SCT025 OVC060
     FM120200 04005KT P6SM -RA SCT025 OVC050
     FM120700 06006KT P6SM -RA BKN025 OVC050
      AMD LTD TO CLD AND VIS=



000
FTUS46 KOTX 111424 AAA
TAFCOE
TAF AMD
KCOE 111424Z 1114/1212 05004KT 3SM BR SCT003
      TEMPO 1114/1116 1SM BR VV003
     FM111700 05005KT 6SM PRFG FEW004 BKN200
     FM111900 04006KT P6SM SCT025 OVC060
     FM120200 04005KT P6SM -RA SCT025 OVC050
     FM120700 06006KT P6SM -RA BKN025 OVC050
      AMD LTD TO CLD AND VIS=



000
FTUS46 KOTX 111136
TAFEAT
TAF
KEAT 111136Z 1112/1212 00000KT P6SM BKN200
     FM111700 28003KT P6SM VCSH SCT020 OVC060
     FM112300 VRB02KT P6SM -RA SCT020 OVC040
     FM120200 VRB03KT 6SM -RA BR BKN019 OVC035=



000
FTUS46 KOTX 111136
TAFEAT
TAF
KEAT 111136Z 1112/1212 00000KT P6SM BKN200
     FM111700 28003KT P6SM VCSH SCT020 OVC060
     FM112300 VRB02KT P6SM -RA SCT020 OVC040
     FM120200 VRB03KT 6SM -RA BR BKN019 OVC035=



000
FTUS46 KOTX 111136
TAFMWH
TAF
KMWH 111136Z 1112/1212 36005KT 6SM BR FEW002 BKN200
      TEMPO 1112/1116 3SM BR
     FM112100 03005KT P6SM VCSH SCT030 OVC060
     FM120100 35007KT P6SM -RA SCT015 OVC040
     FM120400 VRB03KT 6SM -RA BR BKN015 OVC025=



000
FTUS46 KOTX 111136
TAFPUW
TAF
KPUW 111136Z 1112/1212 00000KT P6SM BKN200
     FM111800 11007KT P6SM BKN060 OVC120
     FM120200 11006KT P6SM VCSH SCT020 OVC040=



000
FTUS46 KOTX 111136
TAFSFF
TAF
KSFF 111136Z 1112/1212 00000KT 5SM PRFG SCT003 OVC200
      TEMPO 1113/1116 1SM BR BKN003
     FM111700 VRB03KT P6SM SCT006 BKN012
     FM112000 06004KT P6SM SCT025 OVC050
     FM120100 VRB02KT P6SM -RA BKN025 OVC050=



000
FTUS46 KOTX 111136
TAFPUW
TAF
KPUW 111136Z 1112/1212 00000KT P6SM BKN200
     FM111800 11007KT P6SM BKN060 OVC120
     FM120200 11006KT P6SM VCSH SCT020 OVC040=



000
FTUS46 KOTX 111136
TAFGEG
TAF
KGEG 111136Z 1112/1212 01006KT 1SM BR SCT001
      TEMPO 1112/1114 1/4SM FG VV001
     FM111400 VRB04KT 1/4SM FG VV002
     FM111730 07005KT 4SM BR SCT002 BKN006
     FM111830 07006KT P6SM SCT015 OVC040
     FM120100 06005KT P6SM -RA BKN020 OVC040=



000
FTUS46 KOTX 111136
TAFCOE
TAF
KCOE 111136Z 1112/1212 05004KT P6SM BKN200
     FM111500 05005KT 6SM PRFG FEW004 BKN200
     FM111900 04006KT P6SM SCT025 OVC060
     FM120200 04005KT P6SM -RA SCT025 OVC050
     FM120700 06006KT P6SM -RA BKN025 OVC050
      AMD LTD TO CLD AND VIS=



000
FTUS46 KOTX 111136
TAFCOE
TAF
KCOE 111136Z 1112/1212 05004KT P6SM BKN200
     FM111500 05005KT 6SM PRFG FEW004 BKN200
     FM111900 04006KT P6SM SCT025 OVC060
     FM120200 04005KT P6SM -RA SCT025 OVC050
     FM120700 06006KT P6SM -RA BKN025 OVC050
      AMD LTD TO CLD AND VIS=



000
FTUS46 KOTX 111136
TAFSFF
TAF
KSFF 111136Z 1112/1212 00000KT 5SM PRFG SCT003 OVC200
      TEMPO 1113/1116 1SM BR BKN003
     FM111700 VRB03KT P6SM SCT006 BKN012
     FM112000 06004KT P6SM SCT025 OVC050
     FM120100 VRB02KT P6SM -RA BKN025 OVC050=



000
FTUS46 KOTX 111136
TAFLWS
TAF
KLWS 111136Z 1112/1212 00000KT P6SM BKN200
     FM111800 09005KT P6SM SCT050 BKN100 BKN150
     FM120000 12004KT P6SM SCT050 OVC100=



000
FTUS46 KOTX 111136
TAFEAT
TAF
KEAT 111136Z 1112/1212 00000KT P6SM BKN200
     FM111700 28003KT P6SM VCSH SCT020 OVC060
     FM112300 VRB02KT P6SM -RA SCT020 OVC040
     FM120200 VRB03KT 6SM -RA BR BKN019 OVC035=



000
FTUS46 KOTX 111136
TAFMWH
TAF
KMWH 111136Z 1112/1212 36005KT 6SM BR FEW002 BKN200
      TEMPO 1112/1116 3SM BR
     FM112100 03005KT P6SM VCSH SCT030 OVC060
     FM120100 35007KT P6SM -RA SCT015 OVC040
     FM120400 VRB03KT 6SM -RA BR BKN015 OVC025=



000
FTUS46 KOTX 111136
TAFGEG
TAF
KGEG 111136Z 1112/1212 01006KT 1SM BR SCT001
      TEMPO 1112/1114 1/4SM FG VV001
     FM111400 VRB04KT 1/4SM FG VV002
     FM111730 07005KT 4SM BR SCT002 BKN006
     FM111830 07006KT P6SM SCT015 OVC040
     FM120100 06005KT P6SM -RA BKN020 OVC040=



000
FTUS46 KOTX 111136
TAFPUW
TAF
KPUW 111136Z 1112/1212 00000KT P6SM BKN200
     FM111800 11007KT P6SM BKN060 OVC120
     FM120200 11006KT P6SM VCSH SCT020 OVC040=



000
FTUS46 KOTX 111136
TAFLWS
TAF
KLWS 111136Z 1112/1212 00000KT P6SM BKN200
     FM111800 09005KT P6SM SCT050 BKN100 BKN150
     FM120000 12004KT P6SM SCT050 OVC100=



000
FTUS46 KOTX 111136
TAFLWS
TAF
KLWS 111136Z 1112/1212 00000KT P6SM BKN200
     FM111800 09005KT P6SM SCT050 BKN100 BKN150
     FM120000 12004KT P6SM SCT050 OVC100=



000
FTUS46 KOTX 111136
TAFCOE
TAF
KCOE 111136Z 1112/1212 05004KT P6SM BKN200
     FM111500 05005KT 6SM PRFG FEW004 BKN200
     FM111900 04006KT P6SM SCT025 OVC060
     FM120200 04005KT P6SM -RA SCT025 OVC050
     FM120700 06006KT P6SM -RA BKN025 OVC050
      AMD LTD TO CLD AND VIS=



000
FTUS46 KOTX 111136
TAFMWH
TAF
KMWH 111136Z 1112/1212 36005KT 6SM BR FEW002 BKN200
      TEMPO 1112/1116 3SM BR
     FM112100 03005KT P6SM VCSH SCT030 OVC060
     FM120100 35007KT P6SM -RA SCT015 OVC040
     FM120400 VRB03KT 6SM -RA BR BKN015 OVC025=



000
FTUS46 KOTX 111136
TAFGEG
TAF
KGEG 111136Z 1112/1212 01006KT 1SM BR SCT001
      TEMPO 1112/1114 1/4SM FG VV001
     FM111400 VRB04KT 1/4SM FG VV002
     FM111730 07005KT 4SM BR SCT002 BKN006
     FM111830 07006KT P6SM SCT015 OVC040
     FM120100 06005KT P6SM -RA BKN020 OVC040=



000
FTUS46 KOTX 111136
TAFSFF
TAF
KSFF 111136Z 1112/1212 00000KT 5SM PRFG SCT003 OVC200
      TEMPO 1113/1116 1SM BR BKN003
     FM111700 VRB03KT P6SM SCT006 BKN012
     FM112000 06004KT P6SM SCT025 OVC050
     FM120100 VRB02KT P6SM -RA BKN025 OVC050=



000
FTUS46 KOTX 111013 AAB
TAFGEG
TAF AMD
KGEG 111013Z 1110/1206 18003KT 5SM PRFG FEW003 OVC200
     FM111200 09004KT 1/2SM FG OVC004
     FM111800 07005KT 4SM BR SCT005 OVC015
     FM112000 07006KT P6SM VCSH SCT015 OVC030=



000
FTUS46 KOTX 110857 AAA
TAFGEG
TAF AMD
KGEG 110857Z 1109/1206 18003KT 6SM PRFG FEW005 OVC200
     FM111000 09004KT 1/2SM FG OVC004
     FM111800 07005KT 4SM BR SCT005 OVC015
     FM112000 07006KT P6SM VCSH SCT015 OVC030=



000
FTUS46 KOTX 110728 AAA
TAFEAT
TAF AMD
KEAT 110728Z 1107/1206 27006KT P6SM BKN120
     FM111100 29004KT 6SM PRFG SCT005
     FM111400 28004KT 1SM BR VCSH BKN005 OVC015
     FM111800 28003KT 3SM -SHRA BR SCT005 OVC008=



000
FTUS46 KOTX 110728 AAA
TAFEAT
TAF AMD
KEAT 110728Z 1107/1206 27006KT P6SM BKN120
     FM111100 29004KT 6SM PRFG SCT005
     FM111400 28004KT 1SM BR VCSH BKN005 OVC015
     FM111800 28003KT 3SM -SHRA BR SCT005 OVC008=



000
FTUS46 KOTX 110728 AAA
TAFEAT
TAF AMD
KEAT 110728Z 1107/1206 27006KT P6SM BKN120
     FM111100 29004KT 6SM PRFG SCT005
     FM111400 28004KT 1SM BR VCSH BKN005 OVC015
     FM111800 28003KT 3SM -SHRA BR SCT005 OVC008=



000
FTUS46 KOTX 110522
TAFMWH
TAF
KMWH 110522Z 1106/1206 32004KT P6SM SCT020 OVC050
     FM111600 36004KT P6SM VCSH BKN015 OVC040
     FM120300 35007KT P6SM -RA SCT015 BKN030 OVC040=



000
FTUS46 KOTX 110522
TAFPUW
TAF
KPUW 110522Z 1106/1206 09004KT P6SM SCT020 OVC040
     FM111700 11007KT P6SM SCT050 BKN080 OVC100=



000
FTUS46 KOTX 110522
TAFGEG
TAF
KGEG 110522Z 1106/1206 16004KT 6SM BR SCT090 BKN120
     FM110800 18004KT 5SM BR SCT004 OVC008
     FM111000 09004KT 1/2SM FG OVC004
     FM111800 07005KT 4SM BR SCT005 OVC015
     FM112000 07006KT P6SM VCSH SCT015 OVC030=



000
FTUS46 KOTX 110522
TAFGEG
TAF
KGEG 110522Z 1106/1206 16004KT 6SM BR SCT090 BKN120
     FM110800 18004KT 5SM BR SCT004 OVC008
     FM111000 09004KT 1/2SM FG OVC004
     FM111800 07005KT 4SM BR SCT005 OVC015
     FM112000 07006KT P6SM VCSH SCT015 OVC030=



000
FTUS46 KOTX 110522
TAFSFF
TAF
KSFF 110522Z 1106/1206 17003KT P6SM SCT090 BKN120
     FM110900 VRB02KT 4SM BR SCT006 OVC010
     FM111800 07002KT P6SM OVC025
     FM112000 06004KT P6SM VCSH SCT025 BKN040 OVC050=



000
FTUS46 KOTX 110522
TAFCOE
TAF
KCOE 110522Z 1106/1206 VRB04KT P6SM SCT090 BKN120
     FM110900 05005KT P6SM SCT006 OVC015
     FM111500 05005KT 3SM BR SCT005 OVC012
     FM111800 02006KT P6SM SCT015 OVC025
     FM120000 06005KT P6SM VCSH BKN025 OVC050
      AMD LTD TO CLD AND VIS=



000
FTUS46 KOTX 110522
TAFPUW
TAF
KPUW 110522Z 1106/1206 09004KT P6SM SCT020 OVC040
     FM111700 11007KT P6SM SCT050 BKN080 OVC100=



000
FTUS46 KOTX 110522
TAFLWS
TAF
KLWS 110522Z 1106/1206 14004KT P6SM SCT030 OVC060
     FM111800 09005KT P6SM SCT050 BKN100 BKN150
     FM120000 12004KT P6SM SCT050 OVC100=



000
FTUS46 KOTX 110522
TAFSFF
TAF
KSFF 110522Z 1106/1206 17003KT P6SM SCT090 BKN120
     FM110900 VRB02KT 4SM BR SCT006 OVC010
     FM111800 07002KT P6SM OVC025
     FM112000 06004KT P6SM VCSH SCT025 BKN040 OVC050=



000
FTUS46 KOTX 110522
TAFCOE
TAF
KCOE 110522Z 1106/1206 VRB04KT P6SM SCT090 BKN120
     FM110900 05005KT P6SM SCT006 OVC015
     FM111500 05005KT 3SM BR SCT005 OVC012
     FM111800 02006KT P6SM SCT015 OVC025
     FM120000 06005KT P6SM VCSH BKN025 OVC050
      AMD LTD TO CLD AND VIS=



000
FTUS46 KOTX 110522
TAFLWS
TAF
KLWS 110522Z 1106/1206 14004KT P6SM SCT030 OVC060
     FM111800 09005KT P6SM SCT050 BKN100 BKN150
     FM120000 12004KT P6SM SCT050 OVC100=



000
FTUS46 KOTX 110522
TAFCOE
TAF
KCOE 110522Z 1106/1206 VRB04KT P6SM SCT090 BKN120
     FM110900 05005KT P6SM SCT006 OVC015
     FM111500 05005KT 3SM BR SCT005 OVC012
     FM111800 02006KT P6SM SCT015 OVC025
     FM120000 06005KT P6SM VCSH BKN025 OVC050
      AMD LTD TO CLD AND VIS=



000
FTUS46 KOTX 110522
TAFGEG
TAF
KGEG 110522Z 1106/1206 16004KT 6SM BR SCT090 BKN120
     FM110800 18004KT 5SM BR SCT004 OVC008
     FM111000 09004KT 1/2SM FG OVC004
     FM111800 07005KT 4SM BR SCT005 OVC015
     FM112000 07006KT P6SM VCSH SCT015 OVC030=



000
FTUS46 KOTX 110522
TAFEAT
TAF
KEAT 110522Z 1106/1206 VRB02KT P6SM SCT050 BKN120 BKN200
     FM110700 VRB02KT 4SM BR BKN005 BKN035
     FM111300 28004KT 1SM BR VCSH BKN005 OVC015
     FM111800 28003KT 3SM -SHRA BR SCT005 OVC008=



000
FTUS46 KOTX 110522
TAFMWH
TAF
KMWH 110522Z 1106/1206 32004KT P6SM SCT020 OVC050
     FM111600 36004KT P6SM VCSH BKN015 OVC040
     FM120300 35007KT P6SM -RA SCT015 BKN030 OVC040=



000
FTUS46 KOTX 110522
TAFPUW
TAF
KPUW 110522Z 1106/1206 09004KT P6SM SCT020 OVC040
     FM111700 11007KT P6SM SCT050 BKN080 OVC100=



000
FTUS46 KOTX 110522
TAFLWS
TAF
KLWS 110522Z 1106/1206 14004KT P6SM SCT030 OVC060
     FM111800 09005KT P6SM SCT050 BKN100 BKN150
     FM120000 12004KT P6SM SCT050 OVC100=



000
FTUS46 KOTX 110522
TAFEAT
TAF
KEAT 110522Z 1106/1206 VRB02KT P6SM SCT050 BKN120 BKN200
     FM110700 VRB02KT 4SM BR BKN005 BKN035
     FM111300 28004KT 1SM BR VCSH BKN005 OVC015
     FM111800 28003KT 3SM -SHRA BR SCT005 OVC008=



000
FTUS46 KOTX 110522
TAFSFF
TAF
KSFF 110522Z 1106/1206 17003KT P6SM SCT090 BKN120
     FM110900 VRB02KT 4SM BR SCT006 OVC010
     FM111800 07002KT P6SM OVC025
     FM112000 06004KT P6SM VCSH SCT025 BKN040 OVC050=



000
FTUS46 KOTX 110522
TAFEAT
TAF
KEAT 110522Z 1106/1206 VRB02KT P6SM SCT050 BKN120 BKN200
     FM110700 VRB02KT 4SM BR BKN005 BKN035
     FM111300 28004KT 1SM BR VCSH BKN005 OVC015
     FM111800 28003KT 3SM -SHRA BR SCT005 OVC008=



000
FTUS46 KOTX 110522
TAFMWH
TAF
KMWH 110522Z 1106/1206 32004KT P6SM SCT020 OVC050
     FM111600 36004KT P6SM VCSH BKN015 OVC040
     FM120300 35007KT P6SM -RA SCT015 BKN030 OVC040=



000
FTUS46 KOTX 102328
TAFPUW
TAF
KPUW 102328Z 1100/1124 16009KT P6SM SCT040 BKN070 BKN120
     FM110300 13006KT P6SM SCT035 OVC050
     FM110600 09004KT P6SM SCT020 OVC040
     FM111700 11007KT P6SM SCT050 BKN080 OVC100=



000
FTUS46 KOTX 102328
TAFLWS
TAF
KLWS 102328Z 1100/1124 VRB05KT P6SM SCT050 BKN100
     FM110400 14004KT P6SM SCT030 OVC060
     FM111800 09005KT P6SM SCT050 BKN100 BKN150=



000
FTUS46 KOTX 102328
TAFCOE
TAF
KCOE 102328Z 1100/1124 VRB04KT P6SM SCT070 BKN110
     FM110900 05005KT P6SM SCT006 OVC015
     FM111500 05005KT 3SM BR SCT005 OVC012
     FM111800 02006KT P6SM SCT015 OVC025
      AMD LTD TO CLD AND VIS=



000
FTUS46 KOTX 102328
TAFEAT
TAF
KEAT 102328Z 1100/1124 VRB02KT P6SM SCT050 BKN120 BKN200
     FM110700 VRB02KT 4SM BR BKN005 BKN035
     FM111300 28004KT 1SM BR VCSH BKN005 OVC015
     FM111800 28003KT 3SM -SHRA BR SCT005 OVC008=



000
FTUS46 KOTX 102328
TAFMWH
TAF
KMWH 102328Z 1100/1124 01004KT P6SM SCT100 BKN150
     FM110400 32004KT P6SM SCT020 OVC050
     FM111600 36004KT P6SM VCSH BKN015 OVC040=



000
FTUS46 KOTX 102328
TAFGEG
TAF
KGEG 102328Z 1100/1124 16006KT P6SM SCT070 BKN100
     FM110700 18004KT 5SM BR SCT004 OVC008
     FM111300 09004KT 1/2SM FG OVC004
     FM111800 07005KT 4SM BR SCT005 OVC015
     FM112000 07006KT P6SM VCSH SCT015 OVC030=



000
FTUS46 KOTX 102328
TAFSFF
TAF
KSFF 102328Z 1100/1124 17003KT P6SM SCT070 BKN110
     FM110900 VRB02KT 4SM BR SCT006 OVC010
     FM111800 07002KT P6SM OVC025
     FM112000 06004KT P6SM VCSH SCT025 BKN040 OVC050=



000
FTUS46 KOTX 102328
TAFPUW
TAF
KPUW 102328Z 1100/1124 16009KT P6SM SCT040 BKN070 BKN120
     FM110300 13006KT P6SM SCT035 OVC050
     FM110600 09004KT P6SM SCT020 OVC040
     FM111700 11007KT P6SM SCT050 BKN080 OVC100=



000
FTUS46 KOTX 102328
TAFEAT
TAF
KEAT 102328Z 1100/1124 VRB02KT P6SM SCT050 BKN120 BKN200
     FM110700 VRB02KT 4SM BR BKN005 BKN035
     FM111300 28004KT 1SM BR VCSH BKN005 OVC015
     FM111800 28003KT 3SM -SHRA BR SCT005 OVC008=



000
FTUS46 KOTX 102328
TAFCOE
TAF
KCOE 102328Z 1100/1124 VRB04KT P6SM SCT070 BKN110
     FM110900 05005KT P6SM SCT006 OVC015
     FM111500 05005KT 3SM BR SCT005 OVC012
     FM111800 02006KT P6SM SCT015 OVC025
      AMD LTD TO CLD AND VIS=



000
FTUS46 KOTX 102328
TAFLWS
TAF
KLWS 102328Z 1100/1124 VRB05KT P6SM SCT050 BKN100
     FM110400 14004KT P6SM SCT030 OVC060
     FM111800 09005KT P6SM SCT050 BKN100 BKN150=



000
FTUS46 KOTX 102328
TAFMWH
TAF
KMWH 102328Z 1100/1124 01004KT P6SM SCT100 BKN150
     FM110400 32004KT P6SM SCT020 OVC050
     FM111600 36004KT P6SM VCSH BKN015 OVC040=



000
FTUS46 KOTX 102328
TAFGEG
TAF
KGEG 102328Z 1100/1124 16006KT P6SM SCT070 BKN100
     FM110700 18004KT 5SM BR SCT004 OVC008
     FM111300 09004KT 1/2SM FG OVC004
     FM111800 07005KT 4SM BR SCT005 OVC015
     FM112000 07006KT P6SM VCSH SCT015 OVC030=



000
FTUS46 KOTX 102328
TAFSFF
TAF
KSFF 102328Z 1100/1124 17003KT P6SM SCT070 BKN110
     FM110900 VRB02KT 4SM BR SCT006 OVC010
     FM111800 07002KT P6SM OVC025
     FM112000 06004KT P6SM VCSH SCT025 BKN040 OVC050=



000
FTUS46 KOTX 102328
TAFEAT
TAF
KEAT 102328Z 1100/1124 VRB02KT P6SM SCT050 BKN120 BKN200
     FM110700 VRB02KT 4SM BR BKN005 BKN035
     FM111300 28004KT 1SM BR VCSH BKN005 OVC015
     FM111800 28003KT 3SM -SHRA BR SCT005 OVC008=



000
FTUS46 KOTX 102328
TAFSFF
TAF
KSFF 102328Z 1100/1124 17003KT P6SM SCT070 BKN110
     FM110900 VRB02KT 4SM BR SCT006 OVC010
     FM111800 07002KT P6SM OVC025
     FM112000 06004KT P6SM VCSH SCT025 BKN040 OVC050=



000
FTUS46 KOTX 102328
TAFCOE
TAF
KCOE 102328Z 1100/1124 VRB04KT P6SM SCT070 BKN110
     FM110900 05005KT P6SM SCT006 OVC015
     FM111500 05005KT 3SM BR SCT005 OVC012
     FM111800 02006KT P6SM SCT015 OVC025
      AMD LTD TO CLD AND VIS=



000
FTUS46 KOTX 102328
TAFLWS
TAF
KLWS 102328Z 1100/1124 VRB05KT P6SM SCT050 BKN100
     FM110400 14004KT P6SM SCT030 OVC060
     FM111800 09005KT P6SM SCT050 BKN100 BKN150=



000
FTUS46 KOTX 102328
TAFMWH
TAF
KMWH 102328Z 1100/1124 01004KT P6SM SCT100 BKN150
     FM110400 32004KT P6SM SCT020 OVC050
     FM111600 36004KT P6SM VCSH BKN015 OVC040=



000
FTUS46 KOTX 102328
TAFGEG
TAF
KGEG 102328Z 1100/1124 16006KT P6SM SCT070 BKN100
     FM110700 18004KT 5SM BR SCT004 OVC008
     FM111300 09004KT 1/2SM FG OVC004
     FM111800 07005KT 4SM BR SCT005 OVC015
     FM112000 07006KT P6SM VCSH SCT015 OVC030=



000
FTUS46 KOTX 102328
TAFPUW
TAF
KPUW 102328Z 1100/1124 16009KT P6SM SCT040 BKN070 BKN120
     FM110300 13006KT P6SM SCT035 OVC050
     FM110600 09004KT P6SM SCT020 OVC040
     FM111700 11007KT P6SM SCT050 BKN080 OVC100=



000
FTUS46 KOTX 102000 AAA
TAFCOE
TAF AMD
KCOE 102000Z 1020/1118 07006KT P6SM SCT100 BKN120
     FM110100 16005KT P6SM SCT020 BKN040 BKN100
     FM110900 05005KT P6SM SCT006 OVC015
     FM111500 05005KT 3SM BR SCT005 OVC012
      AMD LTD TO CLD AND VIS=



000
FTUS46 KOTX 101734 CCA
TAFGEG
TAF COR
KGEG 101734Z 1018/1118 14004KT 5SM PRFG SCT003 BKN150
      TEMPO 1018/1020 1/2SM FZFG VV002
     FM102000 16006KT P6SM BKN140 BKN200
     FM110800 15004KT 5SM BR SCT004 OVC008
     FM111500 09004KT 1/2SM FG OVC004=



000
FTUS46 KOTX 101733
TAFCOE
TAF
KCOE 101733Z 1018/1118 07006KT 4SM BR SCT003 SCT100 BKN130
      TEMPO 1018/1020 1SM BR BKN003
     FM110100 16005KT P6SM SCT020 BKN040 BKN100
     FM110900 05005KT P6SM SCT006 OVC015
     FM111500 05005KT 3SM BR SCT005 OVC012
      AMD LTD TO CLD AND VIS=



000
FTUS46 KOTX 101733
TAFPUW
TAF
KPUW 101733Z 1018/1118 16009KT P6SM BKN150 BKN200
     FM110300 13006KT P6SM SCT035 OVC050
     FM110600 09004KT P6SM SCT020 OVC040=



000
FTUS46 KOTX 101733
TAFGEG
TAF
KGEG 101733Z 1018/1118 14004KT 5SM PRFG SCT004
      TEMPO 1018/1020 1/2SM FZFG VV004
     FM102000 16006KT P6SM BKN140 BKN200
     FM110800 15004KT 5SM BR SCT004 OVC008
     FM111500 09004KT 1/2SM FG OVC004=



000
FTUS46 KOTX 101733
TAFLWS
TAF
KLWS 101733Z 1018/1118 17010KT P6SM BKN150 BKN200
     FM110600 14004KT P6SM SCT030 OVC060=



000
FTUS46 KOTX 101733
TAFSFF
TAF
KSFF 101733Z 1018/1118 06004KT 5SM PRFG SCT006
      TEMPO 1018/1019 3SM BR OVC006
     FM102000 17003KT P6SM SCT110 OVC250
     FM110900 VRB02KT 4SM BR SCT006 OVC010=



000
FTUS46 KOTX 101733
TAFEAT
TAF
KEAT 101733Z 1018/1118 VRB02KT 6SM BR BKN120 BKN200
      TEMPO 1018/1020 3SM BR SCT005 BKN120
     FM102000 VRB02KT P6SM SCT030 BKN120 BKN200
     FM110700 VRB02KT 4SM BR BKN005 BKN035
     FM111500 28004KT 2SM BR VCSH OVC015=



000
FTUS46 KOTX 101733
TAFMWH
TAF
KMWH 101733Z 1018/1118 01004KT P6SM SCT100 BKN150
     FM110400 32004KT P6SM SCT020 OVC050=



000
FTUS46 KOTX 101621 AAB
TAFGEG
TAF AMD
KGEG 101621Z 1016/1112 14004KT 5SM PRFG SCT004
      TEMPO 1016/1019 1/2SM FZFG VV004
     FM101900 16006KT P6SM BKN140 BKN200
     FM110800 15004KT 5SM BR SCT003 OVC008=



000
FTUS46 KOTX 101621 AAB
TAFGEG
TAF AMD
KGEG 101621Z 1016/1112 14004KT 5SM PRFG SCT004
      TEMPO 1016/1019 1/2SM FZFG VV004
     FM101900 16006KT P6SM BKN140 BKN200
     FM110800 15004KT 5SM BR SCT003 OVC008=



000
FTUS46 KOTX 101621 AAB
TAFGEG
TAF AMD
KGEG 101621Z 1016/1112 14004KT 5SM PRFG SCT004
      TEMPO 1016/1019 1/2SM FZFG VV004
     FM101900 16006KT P6SM BKN140 BKN200
     FM110800 15004KT 5SM BR SCT003 OVC008=



000
FTUS46 KOTX 101620 AAB
TAFCOE
TAF AMD
KCOE 101620Z 1016/1112 00000KT 3SM PRFG SCT004
      TEMPO 1016/1018 1/2SM FG OVC002
     FM101800 07006KT P6SM OVC250
     FM110900 05005KT P6SM SCT006 OVC012
      AMD LTD TO CLD AND VIS=



000
FTUS46 KOTX 101557 AAA
TAFSFF
TAF AMD
KSFF 101557Z 1016/1112 06004KT 3SM PRFG SCT002
      TEMPO 1016/1019 1SM BR OVC002
     FM101900 17003KT P6SM SCT110 OVC250
     FM110900 VRB02KT 6SM BR SCT006 OVC010=



000
FTUS46 KOTX 101431 AAA
TAFCOE
TAF AMD
KCOE 101431Z 1015/1112 00000KT 6SM PRFG SCT004
      TEMPO 1015/1017 2SM BR OVC004
     FM101800 07006KT P6SM OVC250
     FM110900 05005KT P6SM SCT006 OVC012
      AMD LTD TO CLD AND VIS=



000
FTUS46 KOTX 101355 AAA
TAFGEG
TAF AMD
KGEG 101355Z 1014/1112 14004KT 5SM PRFG SCT004
      TEMPO 1015/1017 1/2SM FZFG VV004
     FM101800 16006KT P6SM BKN140 BKN200
     FM110800 15004KT 5SM BR SCT003 OVC008=



000
FTUS46 KOTX 101350 AAA
TAFEAT
TAF AMD
KEAT 101350Z 1014/1112 33003KT 6SM PRFG FEW001 BKN200
     FM101700 VRB02KT P6SM BKN120 BKN200
     FM110700 VRB02KT P6SM SCT010 BKN035=



000
FTUS46 KOTX 101350 AAA
TAFEAT
TAF AMD
KEAT 101350Z 1014/1112 33003KT 6SM PRFG FEW001 BKN200
     FM101700 VRB02KT P6SM BKN120 BKN200
     FM110700 VRB02KT P6SM SCT010 BKN035=



000
FTUS46 KOTX 101350 AAA
TAFEAT
TAF AMD
KEAT 101350Z 1014/1112 33003KT 6SM PRFG FEW001 BKN200
     FM101700 VRB02KT P6SM BKN120 BKN200
     FM110700 VRB02KT P6SM SCT010 BKN035=



000
FTUS46 KOTX 101200 CCB
TAFEAT
TAF COR
KEAT 101200Z 1012/1112 33003KT 6SM PRFG FEW001
      TEMPO 1012/1015 1SM BR SCT001
     FM101700 VRB02KT P6SM BKN120 BKN200
     FM110700 VRB02KT P6SM SCT010 BKN035=



000
FTUS46 KOTX 101200 CCB
TAFEAT
TAF COR
KEAT 101200Z 1012/1112 33003KT 6SM PRFG FEW001
      TEMPO 1012/1015 1SM BR SCT001
     FM101700 VRB02KT P6SM BKN120 BKN200
     FM110700 VRB02KT P6SM SCT010 BKN035=



000
FTUS46 KOTX 101200 CCB
TAFEAT
TAF COR
KEAT 101200Z 1012/1112 33003KT 6SM PRFG FEW001
      TEMPO 1012/1015 1SM BR SCT001
     FM101700 VRB02KT P6SM BKN120 BKN200
     FM110700 VRB02KT P6SM SCT010 BKN035=



000
FTUS46 KOTX 101144 CCA
TAFEAT
TAF COR
KEAT 101144Z 1012/1112 33003KT 3SM PRFG SCT001
      TEMPO 1012/1015 1SM BR SCT001
     FM101700 VRB02KT P6SM BKN120 BKN200
     FM110700 VRB02KT P6SM SCT010 BKN035=



000
FTUS46 KOTX 101144 CCA
TAFMWH
TAF COR
KMWH 101144Z 1012/1112 01004KT P6SM SCT200
     FM110400 32004KT P6SM SCT020 OVC050=



000
FTUS46 KOTX 101144 CCA
TAFMWH
TAF COR
KMWH 101144Z 1012/1112 01004KT P6SM SCT200
     FM110400 32004KT P6SM SCT020 OVC050=



000
FTUS46 KOTX 101144 CCA
TAFEAT
TAF COR
KEAT 101144Z 1012/1112 33003KT 3SM PRFG SCT001
      TEMPO 1012/1015 1SM BR SCT001
     FM101700 VRB02KT P6SM BKN120 BKN200
     FM110700 VRB02KT P6SM SCT010 BKN035=



000
FTUS46 KOTX 101144 CCA
TAFEAT
TAF COR
KEAT 101144Z 1012/1112 33003KT 3SM PRFG SCT001
      TEMPO 1012/1015 1SM BR SCT001
     FM101700 VRB02KT P6SM BKN120 BKN200
     FM110700 VRB02KT P6SM SCT010 BKN035=



000
FTUS46 KOTX 101144 CCA
TAFMWH
TAF COR
KMWH 101144Z 1012/1112 01004KT P6SM SCT200
     FM110400 32004KT P6SM SCT020 OVC050=



000
FTUS46 KOTX 101139
TAFLWS
TAF
KLWS 101139Z 1012/1112 14009KT P6SM BKN200
     FM110600 14004KT P6SM SCT030 OVC060=



000
FTUS46 KOTX 101139
TAFEAT
TAF
KEAT 101139Z 1012/1112 33003KT 1 1/2SM BR FEW001
     FM101600 VRB02KT P6SM OVC120
     FM102200 28005KT P6SM SCT110 BKN200=



000
FTUS46 KOTX 101139
TAFPUW
TAF
KPUW 101139Z 1012/1112 08009KT P6SM BKN200
     FM110600 09006KT P6SM SCT025 OVC040=



000
FTUS46 KOTX 101139
TAFLWS
TAF
KLWS 101139Z 1012/1112 14009KT P6SM BKN200
     FM110600 14004KT P6SM SCT030 OVC060=



000
FTUS46 KOTX 101139
TAFSFF
TAF
KSFF 101139Z 1012/1112 02004KT P6SM BKN200
     FM101400 VRB02KT 6SM PRFG SCT003
     FM101800 17003KT P6SM SCT110 OVC250
     FM110900 VRB02KT 6SM BR SCT006 OVC010=



000
FTUS46 KOTX 101139
TAFSFF
TAF
KSFF 101139Z 1012/1112 02004KT P6SM BKN200
     FM101400 VRB02KT 6SM PRFG SCT003
     FM101800 17003KT P6SM SCT110 OVC250
     FM110900 VRB02KT 6SM BR SCT006 OVC010=



000
FTUS46 KOTX 101139
TAFLWS
TAF
KLWS 101139Z 1012/1112 14009KT P6SM BKN200
     FM110600 14004KT P6SM SCT030 OVC060=



000
FTUS46 KOTX 101139
TAFEAT
TAF
KEAT 101139Z 1012/1112 33003KT 1 1/2SM BR FEW001
     FM101600 VRB02KT P6SM OVC120
     FM102200 28005KT P6SM SCT110 BKN200=



000
FTUS46 KOTX 101139
TAFGEG
TAF
KGEG 101139Z 1012/1112 14004KT 5SM BR FEW004 BKN200
     FM101300 VRB03KT 1SM BR VV004
     FM101800 16006KT P6SM BKN140 BKN200
     FM110800 15004KT 5SM BR SCT003 OVC008=



000
FTUS46 KOTX 101139
TAFMWH
TAF
KMWH 101139Z 1012/1112 01004KT P6SM BKN200
     FM101600 VRB02KT P6SM OVC120
     FM102200 28005KT P6SM SCT110 BKN200=



000
FTUS46 KOTX 101139
TAFGEG
TAF
KGEG 101139Z 1012/1112 14004KT 5SM BR FEW004 BKN200
     FM101300 VRB03KT 1SM BR VV004
     FM101800 16006KT P6SM BKN140 BKN200
     FM110800 15004KT 5SM BR SCT003 OVC008=



000
FTUS46 KOTX 101139
TAFCOE
TAF
KCOE 101139Z 1012/1112 00000KT 1/2SM FG OVC002
      TEMPO 1014/1017 2SM BR OVC004
     FM101800 07006KT P6SM OVC250
     FM110900 05005KT P6SM SCT006 OVC012
      AMD LTD TO CLD AND VIS=



000
FTUS46 KOTX 101139
TAFSFF
TAF
KSFF 101139Z 1012/1112 02004KT P6SM BKN200
     FM101400 VRB02KT 6SM PRFG SCT003
     FM101800 17003KT P6SM SCT110 OVC250
     FM110900 VRB02KT 6SM BR SCT006 OVC010=



000
FTUS46 KOTX 101139
TAFMWH
TAF
KMWH 101139Z 1012/1112 01004KT P6SM BKN200
     FM101600 VRB02KT P6SM OVC120
     FM102200 28005KT P6SM SCT110 BKN200=



000
FTUS46 KOTX 101139
TAFPUW
TAF
KPUW 101139Z 1012/1112 08009KT P6SM BKN200
     FM110600 09006KT P6SM SCT025 OVC040=



000
FTUS46 KOTX 101139
TAFMWH
TAF
KMWH 101139Z 1012/1112 01004KT P6SM BKN200
     FM101600 VRB02KT P6SM OVC120
     FM102200 28005KT P6SM SCT110 BKN200=



000
FTUS46 KOTX 101139
TAFGEG
TAF
KGEG 101139Z 1012/1112 14004KT 5SM BR FEW004 BKN200
     FM101300 VRB03KT 1SM BR VV004
     FM101800 16006KT P6SM BKN140 BKN200
     FM110800 15004KT 5SM BR SCT003 OVC008=



000
FTUS46 KOTX 101139
TAFCOE
TAF
KCOE 101139Z 1012/1112 00000KT 1/2SM FG OVC002
      TEMPO 1014/1017 2SM BR OVC004
     FM101800 07006KT P6SM OVC250
     FM110900 05005KT P6SM SCT006 OVC012
      AMD LTD TO CLD AND VIS=



000
FTUS46 KOTX 101139
TAFEAT
TAF
KEAT 101139Z 1012/1112 33003KT 1 1/2SM BR FEW001
     FM101600 VRB02KT P6SM OVC120
     FM102200 28005KT P6SM SCT110 BKN200=



000
FTUS46 KOTX 101139
TAFCOE
TAF
KCOE 101139Z 1012/1112 00000KT 1/2SM FG OVC002
      TEMPO 1014/1017 2SM BR OVC004
     FM101800 07006KT P6SM OVC250
     FM110900 05005KT P6SM SCT006 OVC012
      AMD LTD TO CLD AND VIS=



000
FTUS46 KOTX 101139
TAFPUW
TAF
KPUW 101139Z 1012/1112 08009KT P6SM BKN200
     FM110600 09006KT P6SM SCT025 OVC040=



000
FTUS46 KOTX 100521
TAFMWH
TAF
KMWH 100521Z 1006/1106 33006KT P6SM SCT250
     FM101200 35004KT 6SM MIFG FEW001 BKN200
     FM101600 VRB02KT P6SM OVC120
     FM102200 28005KT P6SM SCT110 BKN200=



000
FTUS46 KOTX 100521
TAFPUW
TAF
KPUW 100521Z 1006/1106 07004KT P6SM SCT250
     FM101800 10009KT P6SM BKN250
     FM102100 16008KT P6SM OVC100=



000
FTUS46 KOTX 100521
TAFEAT
TAF
KEAT 100521Z 1006/1106 28003KT P6SM SCT250
     FM101200 29003KT 5SM BR SCT006 BKN200
     FM101600 VRB02KT P6SM OVC120
     FM102200 28005KT P6SM SCT110 BKN200=



000
FTUS46 KOTX 100521
TAFGEG
TAF
KGEG 100521Z 1006/1106 04004KT P6SM SCT250
     FM101000 10004KT 6SM BR FEW001 BKN250
     FM101800 16007KT P6SM SCT110 OVC250
     FM102100 20009KT P6SM OVC100=



000
FTUS46 KOTX 100521
TAFLWS
TAF
KLWS 100521Z 1006/1106 23004KT P6SM FEW250
     FM100700 13005KT P6SM SCT250
     FM102000 11006KT P6SM SCT200=



000
FTUS46 KOTX 100521
TAFSFF
TAF
KSFF 100521Z 1006/1106 05004KT P6SM SCT250
     FM101200 VRB02KT 6SM PRFG FEW001 BKN250
     FM101800 17005KT P6SM SCT110 OVC250
     FM102200 23007KT P6SM OVC100=



000
FTUS46 KOTX 100521
TAFCOE
TAF
KCOE 100521Z 1006/1106 03010KT P6SM SKC
     FM101400 05006KT P6SM VCFG SCT002 BKN250
     FM101800 07006KT P6SM OVC250
     FM102100 20008KT P6SM OVC100
      AMD LTD TO CLD AND VIS=



000
FTUS46 KOTX 100519 RRA
TAFCOE
TAF
KCOE 100519Z 1005/1024 03010KT P6SM SKC
     FM101400 05006KT P6SM VCFG SCT002 BKN250
     FM101800 07006KT P6SM OVC250
     FM102100 20008KT P6SM OVC100
      AMD LTD TO CLD AND VIS=



000
FTUS46 KOTX 100519 RRA
TAFEAT
TAF
KEAT 100519Z 1005/1024 28003KT P6SM SCT250
     FM101200 29003KT 5SM BR SCT006 BKN200
     FM101600 VRB02KT P6SM OVC120
     FM102200 28005KT P6SM SCT110 BKN200=



000
FTUS46 KOTX 100519 RRA
TAFLWS
TAF
KLWS 100519Z 1005/1024 23004KT P6SM FEW250
     FM100700 13005KT P6SM SCT250
     FM102000 11006KT P6SM SCT200=



000
FTUS46 KOTX 100519 RRA
TAFMWH
TAF
KMWH 100519Z 1005/1024 33006KT P6SM SCT250
     FM101200 35004KT 6SM MIFG FEW001 BKN200
     FM101600 VRB02KT P6SM OVC120
     FM102200 28005KT P6SM SCT110 BKN200=



000
FTUS46 KOTX 100519 RRA
TAFGEG
TAF
KGEG 100519Z 1005/1024 04004KT P6SM SCT250
     FM101000 10004KT 6SM BR FEW001 BKN250
     FM101800 16007KT P6SM SCT110 OVC250
     FM102100 20009KT P6SM OVC100=



000
FTUS46 KOTX 100519 RRA
TAFSFF
TAF
KSFF 100519Z 1005/1024 05004KT P6SM SCT250
     FM101200 VRB02KT 6SM PRFG FEW001 BKN250
     FM101800 17005KT P6SM SCT110 OVC250
     FM102200 23007KT P6SM OVC100=



000
FTUS46 KOTX 100519 RRA
TAFPUW
TAF
KPUW 100519Z 1005/1024 07004KT P6SM SCT250
     FM101800 10009KT P6SM BKN250
     FM102100 16008KT P6SM OVC100=



    US Dept of Commerce
    National Oceanic and Atmospheric Administration
    National Weather Service
    1325 East West Highway
    Silver Spring, MD 20910
    Page Author: NWS Internet Services Team
Disclaimer
Information Quality
Credits
Glossary
Privacy Policy
Freedom of Information Act (FOIA)
About Us
Career Opportunities